sensor_id;sensor_type;location;lat;lon;timestamp;pressure;altitude;pressure_sealevel;temperature;humidity
31761;BME280;18335;51.486;7.562;2023-07-29T00:00:07;99438.34;;;21.21;100.00
31761;BME280;18335;51.486;7.562;2023-07-29T00:02:40;99432.97;;;21.31;100.00
31761;BME280;18335;51.486;7.562;2023-07-29T00:05:08;99432.31;;;21.24;100.00
31761;BME280;18335;51.486;7.562;2023-07-29T00:07:35;99436.59;;;20.98;100.00
31761;BME280;18335;51.486;7.562;2023-07-29T00:10:02;99436.69;;;21.20;100.00
31761;BME280;18335;51.486;7.562;2023-07-29T00:12:28;99440.47;;;21.14;100.00
31761;BME280;18335;51.486;7.562;2023-07-29T00:14:55;99434.16;;;21.02;100.00
31761;BME280;18335;51.486;7.562;2023-07-29T00:17:22;99445.25;;;21.18;100.00
31761;BME280;18335;51.486;7.562;2023-07-29T00:19:49;99441.75;;;21.23;100.00
31761;BME280;18335;51.486;7.562;2023-07-29T00:22:17;99434.31;;;21.12;100.00
31761;BME280;18335;51.486;7.562;2023-07-29T00:24:44;99435.44;;;21.11;100.00
31761;BME280;18335;51.486;7.562;2023-07-29T00:27:10;99428.53;;;20.96;100.00
31761;BME280;18335;51.486;7.562;2023-07-29T00:29:37;99431.03;;;20.98;100.00
31761;BME280;18335;51.486;7.562;2023-07-29T00:32:04;99426.44;;;20.87;100.00
31761;BME280;18335;51.486;7.562;2023-07-29T00:34:31;99426.78;;;20.90;100.00
31761;BME280;18335;51.486;7.562;2023-07-29T00:36:58;99421.38;;;20.84;100.00
31761;BME280;18335;51.486;7.562;2023-07-29T00:39:26;99411.44;;;20.88;100.00
31761;BME280;18335;51.486;7.562;2023-07-29T00:41:53;99403.72;;;20.73;100.00
31761;BME280;18335;51.486;7.562;2023-07-29T00:44:21;99409.09;;;20.80;100.00
31761;BME280;18335;51.486;7.562;2023-07-29T00:46:50;99408.84;;;20.65;100.00
31761;BME280;18335;51.486;7.562;2023-07-29T00:49:20;99402.56;;;20.69;100.00
31761;BME280;18335;51.486;7.562;2023-07-29T00:51:47;99407.84;;;20.71;100.00
31761;BME280;18335;51.486;7.562;2023-07-29T00:54:14;99393.38;;;20.85;100.00
31761;BME280;18335;51.486;7.562;2023-07-29T00:56:42;99397.94;;;20.75;100.00
31761;BME280;18335;51.486;7.562;2023-07-29T00:59:09;99396.59;;;20.77;100.00
31761;BME280;18335;51.486;7.562;2023-07-29T01:01:36;99398.09;;;20.68;100.00
31761;BME280;18335;51.486;7.562;2023-07-29T01:04:03;99396.25;;;20.74;100.00
31761;BME280;18335;51.486;7.562;2023-07-29T01:06:44;99393.97;;;20.54;100.00
31761;BME280;18335;51.486;7.562;2023-07-29T01:09:15;99389.09;;;20.61;100.00
31761;BME280;18335;51.486;7.562;2023-07-29T01:11:55;99394.13;;;20.64;100.00
31761;BME280;18335;51.486;7.562;2023-07-29T01:14:29;99388.50;;;20.76;100.00
31761;BME280;18335;51.486;7.562;2023-07-29T01:17:01;99395.41;;;20.73;100.00
31761;BME280;18335;51.486;7.562;2023-07-29T01:19:42;99386.91;;;20.80;100.00
31761;BME280;18335;51.486;7.562;2023-07-29T01:22:10;99389.47;;;20.81;100.00
31761;BME280;18335;51.486;7.562;2023-07-29T01:24:39;99382.66;;;20.72;100.00
31761;BME280;18335;51.486;7.562;2023-07-29T01:27:06;99382.38;;;20.74;100.00
31761;BME280;18335;51.486;7.562;2023-07-29T01:29:33;99380.69;;;20.73;100.00
31761;BME280;18335;51.486;7.562;2023-07-29T01:32:04;99378.03;;;20.78;100.00
31761;BME280;18335;51.486;7.562;2023-07-29T01:34:39;99380.19;;;20.76;100.00
31761;BME280;18335;51.486;7.562;2023-07-29T01:37:09;99388.44;;;20.71;100.00
31761;BME280;18335;51.486;7.562;2023-07-29T01:39:41;99391.78;;;20.56;100.00
31761;BME280;18335;51.486;7.562;2023-07-29T01:42:10;99380.84;;;20.50;100.00
31761;BME280;18335;51.486;7.562;2023-07-29T01:44:37;99382.63;;;20.56;100.00
31761;BME280;18335;51.486;7.562;2023-07-29T01:47:04;99376.00;;;20.57;100.00
31761;BME280;18335;51.486;7.562;2023-07-29T01:49:33;99373.16;;;20.68;100.00
31761;BME280;18335;51.486;7.562;2023-07-29T01:52:00;99381.53;;;20.73;100.00
31761;BME280;18335;51.486;7.562;2023-07-29T01:54:27;99370.63;;;20.50;100.00
31761;BME280;18335;51.486;7.562;2023-07-29T01:56:55;99364.66;;;20.58;100.00
31761;BME280;18335;51.486;7.562;2023-07-29T01:59:21;99358.34;;;20.46;100.00
31761;BME280;18335;51.486;7.562;2023-07-29T02:01:48;99360.03;;;20.47;100.00
31761;BME280;18335;51.486;7.562;2023-07-29T02:04:15;99359.34;;;20.40;100.00
31761;BME280;18335;51.486;7.562;2023-07-29T02:06:42;99358.53;;;20.39;100.00
31761;BME280;18335;51.486;7.562;2023-07-29T02:09:09;99362.72;;;20.42;100.00
31761;BME280;18335;51.486;7.562;2023-07-29T02:11:35;99359.34;;;20.40;100.00
31761;BME280;18335;51.486;7.562;2023-07-29T02:14:03;99357.84;;;20.32;100.00
31761;BME280;18335;51.486;7.562;2023-07-29T02:16:30;99356.75;;;20.33;100.00
31761;BME280;18335;51.486;7.562;2023-07-29T02:18:58;99353.31;;;20.43;100.00
31761;BME280;18335;51.486;7.562;2023-07-29T02:21:25;99348.53;;;20.55;100.00
31761;BME280;18335;51.486;7.562;2023-07-29T02:23:51;99346.50;;;20.67;100.00
31761;BME280;18335;51.486;7.562;2023-07-29T02:26:18;99348.38;;;20.45;100.00
31761;BME280;18335;51.486;7.562;2023-07-29T02:28:45;99343.94;;;20.61;100.00
31761;BME280;18335;51.486;7.562;2023-07-29T02:31:21;99335.84;;;20.59;100.00
31761;BME280;18335;51.486;7.562;2023-07-29T02:33:48;99341.97;;;20.45;100.00
31761;BME280;18335;51.486;7.562;2023-07-29T02:36:16;99337.38;;;20.67;100.00
31761;BME280;18335;51.486;7.562;2023-07-29T02:38:44;99336.84;;;20.53;100.00
31761;BME280;18335;51.486;7.562;2023-07-29T02:41:11;99331.91;;;20.38;100.00
31761;BME280;18335;51.486;7.562;2023-07-29T02:43:38;99332.31;;;20.47;100.00
31761;BME280;18335;51.486;7.562;2023-07-29T02:46:06;99332.84;;;20.61;100.00
31761;BME280;18335;51.486;7.562;2023-07-29T02:48:34;99334.00;;;20.65;100.00
31761;BME280;18335;51.486;7.562;2023-07-29T02:51:01;99329.72;;;20.57;100.00
31761;BME280;18335;51.486;7.562;2023-07-29T02:53:28;99328.47;;;20.48;100.00
31761;BME280;18335;51.486;7.562;2023-07-29T02:55:55;99332.41;;;20.52;100.00
31761;BME280;18335;51.486;7.562;2023-07-29T02:58:22;99329.22;;;20.60;100.00
31761;BME280;18335;51.486;7.562;2023-07-29T03:00:48;99337.19;;;20.73;100.00
31761;BME280;18335;51.486;7.562;2023-07-29T03:03:16;99325.63;;;20.60;100.00
31761;BME280;18335;51.486;7.562;2023-07-29T03:05:46;99326.28;;;20.67;100.00
31761;BME280;18335;51.486;7.562;2023-07-29T03:08:13;99323.69;;;20.60;100.00
31761;BME280;18335;51.486;7.562;2023-07-29T03:10:39;99328.44;;;20.65;100.00
31761;BME280;18335;51.486;7.562;2023-07-29T03:13:07;99333.94;;;20.60;100.00
31761;BME280;18335;51.486;7.562;2023-07-29T03:15:34;99331.63;;;20.73;100.00
31761;BME280;18335;51.486;7.562;2023-07-29T03:18:01;99332.31;;;20.80;100.00
31761;BME280;18335;51.486;7.562;2023-07-29T03:20:27;99322.31;;;20.79;100.00
31761;BME280;18335;51.486;7.562;2023-07-29T03:22:55;99330.13;;;20.82;100.00
31761;BME280;18335;51.486;7.562;2023-07-29T03:25:22;99321.91;;;20.87;100.00
31761;BME280;18335;51.486;7.562;2023-07-29T03:27:49;99324.97;;;20.91;100.00
31761;BME280;18335;51.486;7.562;2023-07-29T03:30:19;99337.84;;;20.80;100.00
31761;BME280;18335;51.486;7.562;2023-07-29T03:32:46;99344.09;;;20.87;100.00
31761;BME280;18335;51.486;7.562;2023-07-29T03:35:13;99343.56;;;20.74;100.00
31761;BME280;18335;51.486;7.562;2023-07-29T03:37:40;99340.53;;;20.92;100.00
31761;BME280;18335;51.486;7.562;2023-07-29T03:40:09;99347.94;;;20.53;100.00
31761;BME280;18335;51.486;7.562;2023-07-29T03:42:35;99346.59;;;20.56;100.00
31761;BME280;18335;51.486;7.562;2023-07-29T03:45:02;99341.88;;;20.73;100.00
31761;BME280;18335;51.486;7.562;2023-07-29T03:47:29;99329.13;;;20.55;100.00
31761;BME280;18335;51.486;7.562;2023-07-29T03:49:57;99328.47;;;20.48;100.00
31761;BME280;18335;51.486;7.562;2023-07-29T03:52:23;99326.19;;;20.45;100.00
31761;BME280;18335;51.486;7.562;2023-07-29T03:54:50;99325.44;;;20.66;100.00
31761;BME280;18335;51.486;7.562;2023-07-29T03:57:18;99322.75;;;20.55;100.00
31761;BME280;18335;51.486;7.562;2023-07-29T03:59:45;99318.13;;;20.60;100.00
31761;BME280;18335;51.486;7.562;2023-07-29T04:02:12;99316.00;;;20.67;100.00
31761;BME280;18335;51.486;7.562;2023-07-29T04:04:39;99312.22;;;20.73;100.00
31761;BME280;18335;51.486;7.562;2023-07-29T04:07:07;99312.50;;;20.55;100.00
31761;BME280;18335;51.486;7.562;2023-07-29T04:09:34;99314.53;;;20.60;100.00
31761;BME280;18335;51.486;7.562;2023-07-29T04:12:00;99320.91;;;20.60;100.00
31761;BME280;18335;51.486;7.562;2023-07-29T04:14:28;99321.50;;;20.62;100.00
31761;BME280;18335;51.486;7.562;2023-07-29T04:16:55;99329.38;;;20.70;100.00
31761;BME280;18335;51.486;7.562;2023-07-29T04:19:22;99322.91;;;20.65;100.00
31761;BME280;18335;51.486;7.562;2023-07-29T04:21:49;99325.84;;;20.58;100.00
31761;BME280;18335;51.486;7.562;2023-07-29T04:24:16;99328.44;;;20.65;100.00
31761;BME280;18335;51.486;7.562;2023-07-29T04:26:43;99330.63;;;20.79;100.00
31761;BME280;18335;51.486;7.562;2023-07-29T04:29:10;99332.88;;;20.82;100.00
31761;BME280;18335;51.486;7.562;2023-07-29T04:31:38;99331.31;;;20.86;100.00
31761;BME280;18335;51.486;7.562;2023-07-29T04:34:05;99331.88;;;20.88;100.00
31761;BME280;18335;51.486;7.562;2023-07-29T04:36:32;99330.00;;;20.94;100.00
31761;BME280;18335;51.486;7.562;2023-07-29T04:38:59;99337.34;;;20.83;100.00
31761;BME280;18335;51.486;7.562;2023-07-29T04:41:25;99326.94;;;20.90;100.00
31761;BME280;18335;51.486;7.562;2023-07-29T04:43:52;99320.03;;;20.76;100.00
31761;BME280;18335;51.486;7.562;2023-07-29T04:46:19;99321.22;;;20.80;100.00
31761;BME280;18335;51.486;7.562;2023-07-29T04:48:47;99314.75;;;20.75;100.00
31761;BME280;18335;51.486;7.562;2023-07-29T04:51:13;99305.25;;;20.87;100.00
31761;BME280;18335;51.486;7.562;2023-07-29T04:53:40;99306.00;;;21.00;100.00
31761;BME280;18335;51.486;7.562;2023-07-29T04:56:07;99306.06;;;21.05;100.00
31761;BME280;18335;51.486;7.562;2023-07-29T04:58:33;99301.00;;;21.02;100.00
31761;BME280;18335;51.486;7.562;2023-07-29T05:01:01;99295.25;;;21.25;100.00
31761;BME280;18335;51.486;7.562;2023-07-29T05:03:28;99291.19;;;20.94;100.00
31761;BME280;18335;51.486;7.562;2023-07-29T05:05:57;99303.84;;;21.07;100.00
31761;BME280;18335;51.486;7.562;2023-07-29T05:08:25;99320.78;;;21.27;100.00
31761;BME280;18335;51.486;7.562;2023-07-29T05:10:53;99321.84;;;21.42;100.00
31761;BME280;18335;51.486;7.562;2023-07-29T05:13:20;99320.44;;;21.40;100.00
31761;BME280;18335;51.486;7.562;2023-07-29T05:15:47;99336.56;;;21.05;100.00
31761;BME280;18335;51.486;7.562;2023-07-29T05:18:14;99340.00;;;21.12;100.00
31761;BME280;18335;51.486;7.562;2023-07-29T05:20:41;99344.31;;;21.41;100.00
31761;BME280;18335;51.486;7.562;2023-07-29T05:23:09;99353.69;;;21.35;100.00
31761;BME280;18335;51.486;7.562;2023-07-29T05:25:36;99349.03;;;21.40;100.00
31761;BME280;18335;51.486;7.562;2023-07-29T05:28:03;99361.09;;;21.51;100.00
31761;BME280;18335;51.486;7.562;2023-07-29T05:30:31;99350.91;;;21.35;100.00
31761;BME280;18335;51.486;7.562;2023-07-29T05:33:02;99345.47;;;21.45;100.00
31761;BME280;18335;51.486;7.562;2023-07-29T05:35:29;99349.47;;;21.54;100.00
31761;BME280;18335;51.486;7.562;2023-07-29T05:37:56;99340.50;;;21.47;100.00
31761;BME280;18335;51.486;7.562;2023-07-29T05:40:24;99325.63;;;21.15;100.00
31761;BME280;18335;51.486;7.562;2023-07-29T05:42:51;99317.09;;;21.38;100.00
31761;BME280;18335;51.486;7.562;2023-07-29T05:45:18;99318.88;;;21.71;100.00
31761;BME280;18335;51.486;7.562;2023-07-29T05:47:44;99307.06;;;21.59;100.00
31761;BME280;18335;51.486;7.562;2023-07-29T05:50:11;99307.50;;;21.72;100.00
31761;BME280;18335;51.486;7.562;2023-07-29T05:52:39;99301.94;;;21.72;100.00
31761;BME280;18335;51.486;7.562;2023-07-29T05:55:06;99299.59;;;21.59;100.00
31761;BME280;18335;51.486;7.562;2023-07-29T05:57:35;99299.97;;;21.46;100.00
31761;BME280;18335;51.486;7.562;2023-07-29T06:00:01;99314.59;;;21.63;100.00
31761;BME280;18335;51.486;7.562;2023-07-29T06:02:39;99326.22;;;21.60;100.00
31761;BME280;18335;51.486;7.562;2023-07-29T06:05:07;99331.03;;;21.65;100.00
31761;BME280;18335;51.486;7.562;2023-07-29T06:07:34;99333.59;;;21.71;100.00
31761;BME280;18335;51.486;7.562;2023-07-29T06:10:00;99349.59;;;21.64;100.00
31761;BME280;18335;51.486;7.562;2023-07-29T06:12:28;99361.09;;;21.51;100.00
31761;BME280;18335;51.486;7.562;2023-07-29T06:14:58;99367.97;;;21.27;100.00
31761;BME280;18335;51.486;7.562;2023-07-29T06:17:24;99373.72;;;21.20;100.00
31761;BME280;18335;51.486;7.562;2023-07-29T06:19:51;99386.72;;;21.36;100.00
31761;BME280;18335;51.486;7.562;2023-07-29T06:22:18;99394.66;;;21.49;100.00
31761;BME280;18335;51.486;7.562;2023-07-29T06:24:44;99392.22;;;21.53;100.00
31761;BME280;18335;51.486;7.562;2023-07-29T06:27:11;99379.06;;;21.27;100.00
31761;BME280;18335;51.486;7.562;2023-07-29T06:29:38;99373.28;;;21.28;100.00
31761;BME280;18335;51.486;7.562;2023-07-29T06:32:07;99384.38;;;21.12;100.00
31761;BME280;18335;51.486;7.562;2023-07-29T06:34:33;99384.56;;;20.88;100.00
31761;BME280;18335;51.486;7.562;2023-07-29T06:37:00;99392.13;;;21.10;100.00
31761;BME280;18335;51.486;7.562;2023-07-29T06:39:27;99401.75;;;21.40;100.00
31761;BME280;18335;51.486;7.562;2023-07-29T06:41:53;99406.50;;;21.23;100.00
31761;BME280;18335;51.486;7.562;2023-07-29T06:44:20;99409.84;;;21.64;100.00
31761;BME280;18335;51.486;7.562;2023-07-29T06:46:47;99417.78;;;21.55;100.00
31761;BME280;18335;51.486;7.562;2023-07-29T06:49:15;99414.34;;;21.10;100.00
31761;BME280;18335;51.486;7.562;2023-07-29T06:51:42;99417.94;;;20.93;100.00
31761;BME280;18335;51.486;7.562;2023-07-29T06:54:08;99425.44;;;21.10;100.00
31761;BME280;18335;51.486;7.562;2023-07-29T06:56:35;99414.47;;;21.03;100.00
31761;BME280;18335;51.486;7.562;2023-07-29T06:59:02;99422.88;;;20.91;100.00
31761;BME280;18335;51.486;7.562;2023-07-29T07:01:29;99416.44;;;21.03;100.00
31761;BME280;18335;51.486;7.562;2023-07-29T07:03:56;99423.22;;;21.12;100.00
31761;BME280;18335;51.486;7.562;2023-07-29T07:06:25;99416.94;;;20.66;100.00
31761;BME280;18335;51.486;7.562;2023-07-29T07:08:51;99422.38;;;20.94;100.00
31761;BME280;18335;51.486;7.562;2023-07-29T07:11:18;99424.22;;;21.06;100.00
31761;BME280;18335;51.486;7.562;2023-07-29T07:13:45;99427.59;;;21.08;100.00
31761;BME280;18335;51.486;7.562;2023-07-29T07:16:12;99423.38;;;20.88;100.00
31761;BME280;18335;51.486;7.562;2023-07-29T07:18:39;99422.66;;;20.93;100.00
31761;BME280;18335;51.486;7.562;2023-07-29T07:21:05;99418.28;;;20.80;100.00
31761;BME280;18335;51.486;7.562;2023-07-29T07:23:33;99421.22;;;20.90;100.00
31761;BME280;18335;51.486;7.562;2023-07-29T07:26:00;99430.47;;;20.96;100.00
31761;BME280;18335;51.486;7.562;2023-07-29T07:28:27;99432.03;;;20.92;100.00
31761;BME280;18335;51.486;7.562;2023-07-29T07:30:54;99425.91;;;20.73;100.00
31761;BME280;18335;51.486;7.562;2023-07-29T07:33:21;99431.09;;;20.53;100.00
31761;BME280;18335;51.486;7.562;2023-07-29T07:35:48;99422.47;;;21.00;100.00
31761;BME280;18335;51.486;7.562;2023-07-29T07:38:14;99422.72;;;21.15;100.00
31761;BME280;18335;51.486;7.562;2023-07-29T07:40:43;99425.25;;;21.00;100.00
31761;BME280;18335;51.486;7.562;2023-07-29T07:43:18;99432.81;;;21.04;100.00
31761;BME280;18335;51.486;7.562;2023-07-29T07:45:45;99436.16;;;20.89;100.00
31761;BME280;18335;51.486;7.562;2023-07-29T07:48:11;99435.69;;;21.26;100.00
31761;BME280;18335;51.486;7.562;2023-07-29T07:50:38;99428.34;;;21.03;100.00
31761;BME280;18335;51.486;7.562;2023-07-29T07:53:05;99421.88;;;21.31;100.00
31761;BME280;18335;51.486;7.562;2023-07-29T07:55:32;99425.63;;;21.41;100.00
31761;BME280;18335;51.486;7.562;2023-07-29T07:58:00;99427.06;;;21.44;100.00
31761;BME280;18335;51.486;7.562;2023-07-29T08:00:26;99417.47;;;21.73;100.00
31761;BME280;18335;51.486;7.562;2023-07-29T08:02:53;99411.78;;;21.63;100.00
31761;BME280;18335;51.486;7.562;2023-07-29T08:05:20;99407.44;;;21.89;100.00
31761;BME280;18335;51.486;7.562;2023-07-29T08:07:47;99412.38;;;21.65;100.00
31761;BME280;18335;51.486;7.562;2023-07-29T08:10:13;99407.50;;;21.94;100.00
31761;BME280;18335;51.486;7.562;2023-07-29T08:12:40;99417.81;;;21.98;100.00
31761;BME280;18335;51.486;7.562;2023-07-29T08:15:09;99394.41;;;22.16;100.00
31761;BME280;18335;51.486;7.562;2023-07-29T08:17:35;99391.66;;;22.43;100.00
31761;BME280;18335;51.486;7.562;2023-07-29T08:20:02;99396.75;;;22.56;100.00
31761;BME280;18335;51.486;7.562;2023-07-29T08:22:29;99395.84;;;22.72;100.00
31761;BME280;18335;51.486;7.562;2023-07-29T08:24:56;99396.75;;;23.20;100.00
31761;BME280;18335;51.486;7.562;2023-07-29T08:27:22;99402.25;;;22.73;100.00
31761;BME280;18335;51.486;7.562;2023-07-29T08:29:49;99419.75;;;21.76;100.00
31761;BME280;18335;51.486;7.562;2023-07-29T08:32:17;99423.09;;;21.78;100.00
31761;BME280;18335;51.486;7.562;2023-07-29T08:34:44;99416.50;;;21.84;100.00
31761;BME280;18335;51.486;7.562;2023-07-29T08:37:11;99425.56;;;21.96;100.00
31761;BME280;18335;51.486;7.562;2023-07-29T08:39:38;99409.78;;;22.24;100.00
31761;BME280;18335;51.486;7.562;2023-07-29T08:42:08;99413.03;;;22.16;100.00
31761;BME280;18335;51.486;7.562;2023-07-29T08:44:40;99415.66;;;22.27;100.00
31761;BME280;18335;51.486;7.562;2023-07-29T08:47:07;99417.22;;;22.45;100.00
31761;BME280;18335;51.486;7.562;2023-07-29T08:49:36;99410.78;;;22.39;100.00
31761;BME280;18335;51.486;7.562;2023-07-29T08:52:04;99417.78;;;22.47;100.00
31761;BME280;18335;51.486;7.562;2023-07-29T08:54:31;99416.50;;;23.18;100.00
31761;BME280;18335;51.486;7.562;2023-07-29T08:56:58;99400.88;;;23.54;100.00
31761;BME280;18335;51.486;7.562;2023-07-29T08:59:26;99406.94;;;23.04;100.00
31761;BME280;18335;51.486;7.562;2023-07-29T09:01:56;99412.59;;;22.82;100.00
31761;BME280;18335;51.486;7.562;2023-07-29T09:04:23;99417.03;;;23.15;100.00
31761;BME280;18335;51.486;7.562;2023-07-29T09:06:53;99408.84;;;22.98;100.00
31761;BME280;18335;51.486;7.562;2023-07-29T09:09:23;99408.69;;;23.57;100.00
31761;BME280;18335;51.486;7.562;2023-07-29T09:11:50;99401.16;;;23.15;100.00
31761;BME280;18335;51.486;7.562;2023-07-29T09:14:17;99402.00;;;23.53;100.00
31761;BME280;18335;51.486;7.562;2023-07-29T09:16:44;99400.69;;;23.24;100.00
31761;BME280;18335;51.486;7.562;2023-07-29T09:19:11;99408.53;;;23.74;100.00
31761;BME280;18335;51.486;7.562;2023-07-29T09:21:39;99402.88;;;24.15;100.00
31761;BME280;18335;51.486;7.562;2023-07-29T09:24:07;99400.00;;;24.05;100.00
31761;BME280;18335;51.486;7.562;2023-07-29T09:26:35;99378.88;;;24.14;100.00
31761;BME280;18335;51.486;7.562;2023-07-29T09:29:02;99392.53;;;24.11;100.00
31761;BME280;18335;51.486;7.562;2023-07-29T09:31:29;99380.25;;;24.07;100.00
31761;BME280;18335;51.486;7.562;2023-07-29T09:33:57;99380.59;;;24.31;100.00
31761;BME280;18335;51.486;7.562;2023-07-29T09:36:25;99390.63;;;24.27;100.00
31761;BME280;18335;51.486;7.562;2023-07-29T09:38:53;99392.19;;;24.07;100.00
31761;BME280;18335;51.486;7.562;2023-07-29T09:41:23;99381.13;;;24.12;100.00
31761;BME280;18335;51.486;7.562;2023-07-29T09:43:55;99387.84;;;24.32;100.00
31761;BME280;18335;51.486;7.562;2023-07-29T09:46:24;99394.00;;;24.44;100.00
31761;BME280;18335;51.486;7.562;2023-07-29T09:48:53;99392.38;;;24.58;100.00
31761;BME280;18335;51.486;7.562;2023-07-29T09:51:21;99399.03;;;24.42;100.00
31761;BME280;18335;51.486;7.562;2023-07-29T09:53:50;99399.28;;;24.35;100.00
31761;BME280;18335;51.486;7.562;2023-07-29T09:56:17;99392.38;;;24.78;100.00
31761;BME280;18335;51.486;7.562;2023-07-29T09:58:45;99400.97;;;24.36;100.00
31761;BME280;18335;51.486;7.562;2023-07-29T10:01:12;99402.25;;;24.03;100.00
31761;BME280;18335;51.486;7.562;2023-07-29T10:03:40;99405.16;;;24.39;100.00
31761;BME280;18335;51.486;7.562;2023-07-29T10:06:07;99400.97;;;24.46;100.00
31761;BME280;18335;51.486;7.562;2023-07-29T10:08:33;99407.97;;;24.74;100.00
31761;BME280;18335;51.486;7.562;2023-07-29T10:11:05;99406.91;;;25.00;100.00
31761;BME280;18335;51.486;7.562;2023-07-29T10:13:33;99406.31;;;25.28;100.00
31761;BME280;18335;51.486;7.562;2023-07-29T10:16:02;99410.81;;;24.99;100.00
31761;BME280;18335;51.486;7.562;2023-07-29T10:18:30;99404.63;;;24.62;100.00
31761;BME280;18335;51.486;7.562;2023-07-29T10:20:59;99405.22;;;24.64;100.00
31761;BME280;18335;51.486;7.562;2023-07-29T10:23:27;99402.16;;;24.86;100.00
31761;BME280;18335;51.486;7.562;2023-07-29T10:25:59;99402.66;;;24.67;100.00
31761;BME280;18335;51.486;7.562;2023-07-29T10:28:29;99405.75;;;24.66;100.00
31761;BME280;18335;51.486;7.562;2023-07-29T10:30:56;99403.84;;;24.82;100.00
31761;BME280;18335;51.486;7.562;2023-07-29T10:33:24;99404.91;;;24.70;100.00
31761;BME280;18335;51.486;7.562;2023-07-29T10:35:52;99399.34;;;24.65;100.00
31761;BME280;18335;51.486;7.562;2023-07-29T10:38:19;99395.72;;;25.00;100.00
31761;BME280;18335;51.486;7.562;2023-07-29T10:40:50;99387.38;;;25.05;100.00
31761;BME280;18335;51.486;7.562;2023-07-29T10:43:19;99390.16;;;25.20;100.00
31761;BME280;18335;51.486;7.562;2023-07-29T10:45:50;99408.28;;;25.53;100.00
31761;BME280;18335;51.486;7.562;2023-07-29T10:48:42;99405.22;;;24.64;100.00
31761;BME280;18335;51.486;7.562;2023-07-29T10:51:23;99396.84;;;25.04;100.00
31761;BME280;18335;51.486;7.562;2023-07-29T10:53:52;99395.19;;;25.08;100.00
31761;BME280;18335;51.486;7.562;2023-07-29T10:56:24;99385.38;;;24.70;100.00
31761;BME280;18335;51.486;7.562;2023-07-29T10:58:55;99390.91;;;24.40;100.00
31761;BME280;18335;51.486;7.562;2023-07-29T11:01:26;99384.56;;;24.85;100.00
31761;BME280;18335;51.486;7.562;2023-07-29T11:04:24;99385.66;;;24.74;100.00
31761;BME280;18335;51.486;7.562;2023-07-29T11:07:26;99379.19;;;24.18;100.00
31761;BME280;18335;51.486;7.562;2023-07-29T11:09:55;99378.97;;;24.70;100.00
31761;BME280;18335;51.486;7.562;2023-07-29T11:12:40;99385.94;;;25.18;100.00
31761;BME280;18335;51.486;7.562;2023-07-29T11:15:21;99396.81;;;25.35;100.00
31761;BME280;18335;51.486;7.562;2023-07-29T11:17:50;99393.47;;;25.53;100.00
31761;BME280;18335;51.486;7.562;2023-07-29T11:20:20;99390.56;;;25.83;100.00
31761;BME280;18335;51.486;7.562;2023-07-29T11:22:48;99390.28;;;25.79;100.00
31761;BME280;18335;51.486;7.562;2023-07-29T11:25:16;99371.44;;;26.10;100.00
31761;BME280;18335;51.486;7.562;2023-07-29T11:27:44;99361.78;;;26.70;100.00
31761;BME280;18335;51.486;7.562;2023-07-29T11:30:13;99354.75;;;25.90;100.00
31761;BME280;18335;51.486;7.562;2023-07-29T11:32:41;99365.44;;;25.73;100.00
31761;BME280;18335;51.486;7.562;2023-07-29T11:35:10;99363.19;;;25.80;100.00
31761;BME280;18335;51.486;7.562;2023-07-29T11:37:39;99356.50;;;25.76;100.00
31761;BME280;18335;51.486;7.562;2023-07-29T11:40:07;99367.56;;;26.01;100.00
31761;BME280;18335;51.486;7.562;2023-07-29T11:42:37;99371.78;;;25.94;100.00
31761;BME280;18335;51.486;7.562;2023-07-29T11:45:05;99371.06;;;25.63;100.00
31761;BME280;18335;51.486;7.562;2023-07-29T11:47:33;99370.69;;;25.84;100.00
31761;BME280;18335;51.486;7.562;2023-07-29T11:50:03;99371.50;;;26.49;100.00
31761;BME280;18335;51.486;7.562;2023-07-29T11:52:31;99374.78;;;26.56;100.00
31761;BME280;18335;51.486;7.562;2023-07-29T11:55:00;99368.50;;;26.35;100.00
31761;BME280;18335;51.486;7.562;2023-07-29T11:57:27;99368.06;;;26.08;100.00
31761;BME280;18335;51.486;7.562;2023-07-29T11:59:54;99372.34;;;26.45;100.00
31761;BME280;18335;51.486;7.562;2023-07-29T12:02:23;99377.41;;;26.43;100.00
31761;BME280;18335;51.486;7.562;2023-07-29T12:04:50;99381.50;;;26.06;100.00
31761;BME280;18335;51.486;7.562;2023-07-29T12:07:18;99389.03;;;25.26;100.00
31761;BME280;18335;51.486;7.562;2023-07-29T12:09:46;99384.53;;;25.30;100.00
31761;BME280;18335;51.486;7.562;2023-07-29T12:12:14;99383.97;;;25.39;100.00
31761;BME280;18335;51.486;7.562;2023-07-29T12:14:44;99371.56;;;25.80;100.00
31761;BME280;18335;51.486;7.562;2023-07-29T12:17:12;99369.22;;;26.02;100.00
31761;BME280;18335;51.486;7.562;2023-07-29T12:19:39;99355.34;;;26.36;100.00
31761;BME280;18335;51.486;7.562;2023-07-29T12:22:08;99361.75;;;26.42;100.00
31761;BME280;18335;51.486;7.562;2023-07-29T12:24:37;99359.56;;;26.33;100.00
31761;BME280;18335;51.486;7.562;2023-07-29T12:27:04;99367.16;;;26.67;100.00
31761;BME280;18335;51.486;7.562;2023-07-29T12:29:32;99356.13;;;27.43;100.00
31761;BME280;18335;51.486;7.562;2023-07-29T12:32:06;99359.47;;;26.44;100.00
31761;BME280;18335;51.486;7.562;2023-07-29T12:34:33;99355.19;;;26.17;100.00
31761;BME280;18335;51.486;7.562;2023-07-29T12:37:02;99361.69;;;26.85;100.00
31761;BME280;18335;51.486;7.562;2023-07-29T12:39:32;99369.13;;;26.22;100.00
31761;BME280;18335;51.486;7.562;2023-07-29T12:42:00;99375.00;;;25.62;100.00
31761;BME280;18335;51.486;7.562;2023-07-29T12:44:29;99368.75;;;25.85;100.00
31761;BME280;18335;51.486;7.562;2023-07-29T12:46:58;99359.38;;;26.59;100.00
31761;BME280;18335;51.486;7.562;2023-07-29T12:49:25;99365.06;;;26.87;100.00
31761;BME280;18335;51.486;7.562;2023-07-29T12:51:53;99351.94;;;27.40;100.00
31761;BME280;18335;51.486;7.562;2023-07-29T12:54:20;99356.13;;;27.43;100.00